createdAt,value
2023-04-27T00:00:07.741Z,22.15
2023-04-27T00:00:38.167Z,22.17
2023-04-27T00:01:08.592Z,22.17
2023-04-27T00:01:39.028Z,22.14
2023-04-27T00:02:09.509Z,22.14
2023-04-27T00:02:40.018Z,22.12
2023-04-27T00:03:10.703Z,22.12
2023-04-27T00:03:41.310Z,22.14
2023-04-27T00:04:11.909Z,22.14
2023-04-27T00:04:42.541Z,22.14
2023-04-27T00:05:13.122Z,22.14
2023-04-27T00:05:43.720Z,22.14
2023-04-27T00:06:14.299Z,22.14
2023-04-27T00:06:44.753Z,22.12
2023-04-27T00:07:15.190Z,22.10
2023-04-27T00:07:45.591Z,22.14
2023-04-27T00:08:16.013Z,22.14
2023-04-27T00:08:46.431Z,22.15
2023-04-27T00:09:16.961Z,22.14
2023-04-27T00:09:47.357Z,22.17
2023-04-27T00:10:17.789Z,22.15
2023-04-27T00:10:48.231Z,22.15
2023-04-27T00:11:18.668Z,22.15
2023-04-27T00:11:49.063Z,22.17
2023-04-27T00:12:19.494Z,22.17
2023-04-27T00:12:49.917Z,22.15
2023-04-27T00:13:20.338Z,22.15
2023-04-27T00:13:50.764Z,22.15
2023-04-27T00:14:21.185Z,22.15
2023-04-27T00:14:51.615Z,22.17
2023-04-27T00:15:22.050Z,22.15
2023-04-27T00:15:52.535Z,22.15
2023-04-27T00:16:22.985Z,22.14
2023-04-27T00:16:53.437Z,22.14
2023-04-27T00:17:23.914Z,22.14
2023-04-27T00:17:54.337Z,22.14
2023-04-27T00:18:24.734Z,22.14
2023-04-27T00:18:55.159Z,22.15
2023-04-27T00:19:25.588Z,22.15
2023-04-27T00:19:56.020Z,22.17
2023-04-27T00:20:26.445Z,22.12
2023-04-27T00:20:56.866Z,22.10
2023-04-27T00:21:27.290Z,22.15
2023-04-27T00:21:57.735Z,22.14
2023-04-27T00:22:28.157Z,22.14
2023-04-27T00:22:58.586Z,22.14
2023-04-27T00:23:29.012Z,22.15
2023-04-27T00:23:59.433Z,22.14
2023-04-27T00:24:29.851Z,22.15
2023-04-27T00:25:00.309Z,22.14
2023-04-27T00:25:30.727Z,22.14
2023-04-27T00:26:01.174Z,22.15
2023-04-27T00:26:31.600Z,22.14
2023-04-27T00:27:02.006Z,22.15
2023-04-27T00:27:32.429Z,22.15
2023-04-27T00:28:02.852Z,22.14
2023-04-27T00:28:33.279Z,22.14
2023-04-27T00:29:03.713Z,22.12
2023-04-27T00:29:34.123Z,22.14
2023-04-27T00:30:04.556Z,22.12
2023-04-27T00:30:34.984Z,22.14
2023-04-27T00:31:05.418Z,22.15
2023-04-27T00:31:35.867Z,22.14
2023-04-27T00:32:06.317Z,22.15
2023-04-27T00:32:36.877Z,22.15
2023-04-27T00:33:07.293Z,22.14
2023-04-27T00:33:37.714Z,22.14
2023-04-27T00:34:08.425Z,22.12
2023-04-27T00:34:38.806Z,22.10
2023-04-27T00:35:09.236Z,22.14
2023-04-27T00:35:39.668Z,22.14
2023-04-27T00:36:10.112Z,22.14
2023-04-27T00:36:40.530Z,22.12
2023-04-27T00:37:10.951Z,22.14
2023-04-27T00:37:41.386Z,22.14
2023-04-27T00:38:11.838Z,22.14
2023-04-27T00:38:42.224Z,22.14
2023-04-27T00:39:12.923Z,22.12
2023-04-27T00:39:43.499Z,22.14
2023-04-27T00:40:13.931Z,22.12
2023-04-27T00:40:44.352Z,22.12
2023-04-27T00:41:14.779Z,22.14
2023-04-27T00:41:45.203Z,22.12
2023-04-27T00:42:15.619Z,22.14
2023-04-27T00:42:46.044Z,22.14
2023-04-27T00:43:16.470Z,22.12
2023-04-27T00:43:46.890Z,22.12
2023-04-27T00:44:17.315Z,22.12
2023-04-27T00:44:47.745Z,22.10
2023-04-27T00:45:18.196Z,22.12
2023-04-27T00:45:48.711Z,22.10
2023-04-27T00:46:19.167Z,22.10
2023-04-27T00:46:49.567Z,22.14
2023-04-27T00:47:20.021Z,22.14
2023-04-27T00:47:50.492Z,22.12
2023-04-27T00:48:20.905Z,22.12
2023-04-27T00:48:51.320Z,22.12
2023-04-27T00:49:21.741Z,22.12
2023-04-27T00:49:52.183Z,22.14
2023-04-27T00:50:22.625Z,22.12
2023-04-27T00:50:53.046Z,22.12
2023-04-27T00:51:23.476Z,22.12
2023-04-27T00:51:53.890Z,22.10
2023-04-27T00:52:24.317Z,22.09
2023-04-27T00:52:54.757Z,22.12
2023-04-27T00:53:25.172Z,22.12
2023-04-27T00:53:55.596Z,22.12
2023-04-27T00:54:26.035Z,22.14
2023-04-27T00:54:56.447Z,22.12
2023-04-27T00:55:26.884Z,22.14
2023-04-27T00:55:57.306Z,22.12
2023-04-27T00:56:27.728Z,22.12
2023-04-27T00:56:58.147Z,22.09
2023-04-27T00:57:28.573Z,22.10
2023-04-27T00:57:58.998Z,22.09
2023-04-27T00:58:29.423Z,22.09
2023-04-27T00:58:59.844Z,22.10
2023-04-27T00:59:30.262Z,22.10
2023-04-27T01:00:00.704Z,22.10
2023-04-27T01:00:31.120Z,22.10
2023-04-27T01:01:01.559Z,22.12
2023-04-27T01:01:32.016Z,22.10
2023-04-27T01:02:02.465Z,22.09
2023-04-27T01:02:33.026Z,22.10
2023-04-27T01:03:03.702Z,22.09
2023-04-27T01:03:34.293Z,22.09
2023-04-27T01:04:04.971Z,22.09
2023-04-27T01:04:35.492Z,22.12
2023-04-27T01:05:05.930Z,22.14
2023-04-27T01:05:36.373Z,22.12
2023-04-27T01:06:06.787Z,22.12
2023-04-27T01:06:37.206Z,22.10
2023-04-27T01:07:07.632Z,22.10
2023-04-27T01:07:38.070Z,22.09
2023-04-27T01:08:08.483Z,22.09
2023-04-27T01:08:38.913Z,22.10
2023-04-27T01:09:09.331Z,22.10
2023-04-27T01:09:39.752Z,22.12
2023-04-27T01:10:10.199Z,22.12
2023-04-27T01:10:40.615Z,22.12
2023-04-27T01:11:11.148Z,22.12
2023-04-27T01:11:41.576Z,22.12
2023-04-27T01:12:12.000Z,22.10
2023-04-27T01:12:42.421Z,22.12
2023-04-27T01:13:12.858Z,22.14
2023-04-27T01:13:43.270Z,22.12
2023-04-27T01:14:13.697Z,22.12
2023-04-27T01:14:44.116Z,22.12
2023-04-27T01:15:14.532Z,22.12
2023-04-27T01:15:44.971Z,22.12
2023-04-27T01:16:15.411Z,22.12
2023-04-27T01:16:45.854Z,22.10
2023-04-27T01:17:16.232Z,22.12
2023-04-27T01:17:46.675Z,22.12
2023-04-27T01:18:17.099Z,22.10
2023-04-27T01:18:47.500Z,22.12
2023-04-27T01:19:17.929Z,22.10
2023-04-27T01:19:48.345Z,22.09
2023-04-27T01:20:18.768Z,22.09
2023-04-27T01:20:49.203Z,22.07
2023-04-27T01:21:19.629Z,22.09
2023-04-27T01:21:50.053Z,22.06
2023-04-27T01:22:20.488Z,22.07
2023-04-27T01:22:50.918Z,22.09
2023-04-27T01:23:21.330Z,22.10
2023-04-27T01:23:51.748Z,22.12
2023-04-27T01:24:22.166Z,22.09
2023-04-27T01:24:52.587Z,22.09
2023-04-27T01:25:23.031Z,22.09
2023-04-27T01:25:53.484Z,22.10
2023-04-27T01:26:23.904Z,22.10
2023-04-27T01:26:54.320Z,22.10
2023-04-27T01:27:24.744Z,22.07
2023-04-27T01:27:55.164Z,22.07
2023-04-27T01:28:25.586Z,22.07
2023-04-27T01:28:56.021Z,22.09
2023-04-27T01:29:26.448Z,22.09
2023-04-27T01:29:56.873Z,22.09
2023-04-27T01:30:27.291Z,22.07
2023-04-27T01:30:57.747Z,22.07
2023-04-27T01:31:28.211Z,22.07
2023-04-27T01:31:58.623Z,22.07
2023-04-27T01:32:29.060Z,22.06
2023-04-27T01:32:59.481Z,22.07
2023-04-27T01:33:29.902Z,22.07
2023-04-27T01:34:00.318Z,22.09
2023-04-27T01:34:30.749Z,22.07
2023-04-27T01:35:01.146Z,22.09
2023-04-27T01:35:31.558Z,22.09
2023-04-27T01:36:02.007Z,22.09
2023-04-27T01:36:32.444Z,22.10
2023-04-27T01:37:02.852Z,22.09
2023-04-27T01:37:33.273Z,22.10
2023-04-27T01:38:03.730Z,22.09
2023-04-27T01:38:34.140Z,22.10
2023-04-27T01:39:04.629Z,22.10
2023-04-27T01:39:35.015Z,22.12
2023-04-27T01:40:05.433Z,22.09
2023-04-27T01:40:35.851Z,22.09
2023-04-27T01:41:06.285Z,22.10
2023-04-27T01:41:36.717Z,22.09
2023-04-27T01:42:07.139Z,22.10
2023-04-27T01:42:37.556Z,22.10
2023-04-27T01:43:07.988Z,22.12
2023-04-27T01:43:38.418Z,22.14
2023-04-27T01:44:08.834Z,22.12
2023-04-27T01:44:39.264Z,22.12
2023-04-27T01:45:09.681Z,22.12
2023-04-27T01:45:40.102Z,22.12
2023-04-27T01:46:10.604Z,22.09
2023-04-27T01:46:41.138Z,22.09
2023-04-27T01:47:11.614Z,22.09
2023-04-27T01:47:42.106Z,22.06
2023-04-27T01:48:12.486Z,22.07
2023-04-27T01:48:43.012Z,22.06
2023-04-27T01:49:13.563Z,22.06
2023-04-27T01:49:44.052Z,22.05
2023-04-27T01:50:14.515Z,22.07
2023-04-27T01:50:44.929Z,22.07
2023-04-27T01:51:15.366Z,22.07
2023-04-27T01:51:45.818Z,22.07
2023-04-27T01:52:16.211Z,22.07
2023-04-27T01:52:46.654Z,22.09
2023-04-27T01:53:17.052Z,22.09
2023-04-27T01:53:47.483Z,22.09
2023-04-27T01:54:17.913Z,22.09
2023-04-27T01:54:48.329Z,22.07
2023-04-27T01:55:18.758Z,22.09
2023-04-27T01:55:49.174Z,22.09
2023-04-27T01:56:19.606Z,22.09
2023-04-27T01:56:50.028Z,22.09
2023-04-27T01:57:20.450Z,22.09
2023-04-27T01:57:50.886Z,22.07
2023-04-27T01:58:21.309Z,22.09
2023-04-27T01:58:51.727Z,22.10
2023-04-27T01:59:22.156Z,22.10
2023-04-27T01:59:52.575Z,22.10
2023-04-27T02:00:22.994Z,22.09
2023-04-27T02:00:53.415Z,22.07
2023-04-27T02:01:23.850Z,22.07
2023-04-27T02:01:54.340Z,22.09
2023-04-27T02:02:24.902Z,22.09
2023-04-27T02:02:55.525Z,22.09
2023-04-27T02:03:26.136Z,22.09
2023-04-27T02:03:56.838Z,22.07
2023-04-27T02:04:27.476Z,22.06
2023-04-27T02:04:57.966Z,22.07
2023-04-27T02:05:28.391Z,22.06
2023-04-27T02:05:58.809Z,22.06
2023-04-27T02:06:29.254Z,22.07
2023-04-27T02:06:59.668Z,22.07
2023-04-27T02:07:30.097Z,22.05
2023-04-27T02:08:00.531Z,22.06
2023-04-27T02:08:30.932Z,22.06
2023-04-27T02:09:01.355Z,22.07
2023-04-27T02:09:31.773Z,22.09
2023-04-27T02:10:02.221Z,22.07
2023-04-27T02:10:32.618Z,22.10
2023-04-27T02:11:03.084Z,22.10
2023-04-27T02:11:33.489Z,22.09
2023-04-27T02:12:03.907Z,22.09
2023-04-27T02:12:34.334Z,22.07
2023-04-27T02:13:04.760Z,22.06
2023-04-27T02:13:35.174Z,22.06
2023-04-27T02:14:05.602Z,22.07
2023-04-27T02:14:36.033Z,22.06
2023-04-27T02:15:06.451Z,22.05
2023-04-27T02:15:36.885Z,22.06
2023-04-27T02:16:07.394Z,22.05
2023-04-27T02:16:37.945Z,22.06
2023-04-27T02:17:08.436Z,22.06
2023-04-27T02:17:38.877Z,22.06
2023-04-27T02:18:09.303Z,22.09
2023-04-27T02:18:39.703Z,22.07
2023-04-27T02:19:10.146Z,22.06
2023-04-27T02:19:40.543Z,22.05
2023-04-27T02:20:10.967Z,22.06
2023-04-27T02:20:41.386Z,22.06
2023-04-27T02:21:11.811Z,22.07
2023-04-27T02:21:42.259Z,22.07
2023-04-27T02:22:12.678Z,22.07
2023-04-27T02:22:43.115Z,22.06
2023-04-27T02:23:13.542Z,22.07
2023-04-27T02:23:43.963Z,22.07
2023-04-27T02:24:14.383Z,22.06
2023-04-27T02:24:45.056Z,22.07
2023-04-27T02:25:15.499Z,22.07
2023-04-27T02:25:45.898Z,22.09
2023-04-27T02:26:16.323Z,22.06
2023-04-27T02:26:46.761Z,22.06
2023-04-27T02:27:17.222Z,22.09
2023-04-27T02:27:47.981Z,22.09
2023-04-27T02:28:18.774Z,22.10
2023-04-27T02:28:49.617Z,22.10
2023-04-27T02:29:20.248Z,22.07
2023-04-27T02:29:51.190Z,22.09
2023-04-27T02:30:22.063Z,22.09
2023-04-27T02:30:52.906Z,22.07
2023-04-27T02:31:23.332Z,22.09
2023-04-27T02:31:53.868Z,22.07
2023-04-27T02:32:24.328Z,22.05
2023-04-27T02:32:54.760Z,22.05
2023-04-27T02:33:25.152Z,22.05
2023-04-27T02:33:55.579Z,22.05
2023-04-27T02:34:26.021Z,22.03
2023-04-27T02:34:56.407Z,22.03
2023-04-27T02:35:26.832Z,22.03
2023-04-27T02:35:57.258Z,22.06
2023-04-27T02:36:27.683Z,22.05
2023-04-27T02:36:58.114Z,22.06
2023-04-27T02:37:28.539Z,22.05
2023-04-27T02:37:58.955Z,22.07
2023-04-27T02:38:29.377Z,22.07
2023-04-27T02:38:59.801Z,22.07
2023-04-27T02:39:30.221Z,22.09
2023-04-27T02:40:00.692Z,22.07
2023-04-27T02:40:31.072Z,22.06
2023-04-27T02:41:01.493Z,22.09
2023-04-27T02:41:31.905Z,22.06
2023-04-27T02:42:02.352Z,22.06
2023-04-27T02:42:32.770Z,22.07
2023-04-27T02:43:03.192Z,22.06
2023-04-27T02:43:33.613Z,22.05
2023-04-27T02:44:04.033Z,22.06
2023-04-27T02:44:34.500Z,22.05
2023-04-27T02:45:04.923Z,22.06
2023-04-27T02:45:35.350Z,22.05
2023-04-27T02:46:05.773Z,22.05
2023-04-27T02:46:36.241Z,22.06
2023-04-27T02:47:06.698Z,22.06
2023-04-27T02:47:37.130Z,22.07
2023-04-27T02:48:07.583Z,22.10
2023-04-27T02:48:37.993Z,22.07
2023-04-27T02:49:08.417Z,22.09
2023-04-27T02:49:38.856Z,22.07
2023-04-27T02:50:09.277Z,22.06
2023-04-27T02:50:39.690Z,22.06
2023-04-27T02:51:10.127Z,22.06
2023-04-27T02:51:40.536Z,22.05
2023-04-27T02:52:10.964Z,22.05
2023-04-27T02:52:41.382Z,22.05
2023-04-27T02:53:11.833Z,22.05
2023-04-27T02:53:42.226Z,22.05
2023-04-27T02:54:12.646Z,22.03
2023-04-27T02:54:43.084Z,22.05
2023-04-27T02:55:13.493Z,22.05
2023-04-27T02:55:43.916Z,22.03
2023-04-27T02:56:14.335Z,22.06
2023-04-27T02:56:44.759Z,22.05
2023-04-27T02:57:15.192Z,22.06
2023-04-27T02:57:45.617Z,22.05
2023-04-27T02:58:16.035Z,22.05
2023-04-27T02:58:46.470Z,22.03
2023-04-27T02:59:16.887Z,22.05
2023-04-27T02:59:47.382Z,22.06
2023-04-27T03:00:17.803Z,22.07
2023-04-27T03:00:48.987Z,22.06
2023-04-27T03:01:19.539Z,22.06
2023-04-27T03:01:49.954Z,22.07
2023-04-27T03:02:20.449Z,22.07
2023-04-27T03:02:51.081Z,22.07
2023-04-27T03:03:21.641Z,22.06
2023-04-27T03:03:52.391Z,22.06
2023-04-27T03:04:22.921Z,22.07
2023-04-27T03:04:53.368Z,22.05
2023-04-27T03:05:23.766Z,22.06
2023-04-27T03:05:54.186Z,22.03
2023-04-27T03:06:24.622Z,22.05
2023-04-27T03:06:55.044Z,22.03
2023-04-27T03:07:25.482Z,22.06
2023-04-27T03:07:55.917Z,22.05
2023-04-27T03:08:26.345Z,22.05
2023-04-27T03:08:56.751Z,22.03
2023-04-27T03:09:27.185Z,22.02
2023-04-27T03:09:57.647Z,22.03
2023-04-27T03:10:28.056Z,22.03
2023-04-27T03:10:58.480Z,22.06
2023-04-27T03:11:28.898Z,22.05
2023-04-27T03:11:59.326Z,22.06
2023-04-27T03:12:29.751Z,22.06
2023-04-27T03:13:00.172Z,22.05
2023-04-27T03:13:30.626Z,22.06
2023-04-27T03:14:01.058Z,22.06
2023-04-27T03:14:31.478Z,22.05
2023-04-27T03:15:01.922Z,22.05
2023-04-27T03:15:32.348Z,22.02
2023-04-27T03:16:02.797Z,22.02
2023-04-27T03:16:33.314Z,22.03
2023-04-27T03:17:03.810Z,22.03
2023-04-27T03:17:34.266Z,22.02
2023-04-27T03:18:04.731Z,22.03
2023-04-27T03:18:35.096Z,22.05
2023-04-27T03:19:05.582Z,22.03
2023-04-27T03:19:35.955Z,22.03
2023-04-27T03:20:06.433Z,22.05
2023-04-27T03:20:36.811Z,22.05
2023-04-27T03:21:07.234Z,22.06
2023-04-27T03:21:37.662Z,22.06
2023-04-27T03:22:08.088Z,22.06
2023-04-27T03:22:38.539Z,22.07
2023-04-27T03:23:08.968Z,22.07
2023-04-27T03:23:39.376Z,22.07
2023-04-27T03:24:09.852Z,22.07
2023-04-27T03:24:40.241Z,22.07
2023-04-27T03:25:10.659Z,22.09
2023-04-27T03:25:41.081Z,22.10
2023-04-27T03:26:11.503Z,22.07
2023-04-27T03:26:41.923Z,22.09
2023-04-27T03:27:12.344Z,22.09
2023-04-27T03:27:42.798Z,22.06
2023-04-27T03:28:13.225Z,22.07
2023-04-27T03:28:43.649Z,22.06
2023-04-27T03:29:14.335Z,22.07
2023-04-27T03:29:44.897Z,22.07
2023-04-27T03:30:15.310Z,22.06
2023-04-27T03:30:45.730Z,22.06
2023-04-27T03:31:16.205Z,22.05
2023-04-27T03:31:46.632Z,22.07
2023-04-27T03:32:17.017Z,22.06
2023-04-27T03:32:47.948Z,22.05
2023-04-27T03:33:18.367Z,22.03
2023-04-27T03:33:48.787Z,22.03
2023-04-27T03:34:19.211Z,22.03
2023-04-27T03:34:49.633Z,22.05
2023-04-27T03:35:20.080Z,22.03
2023-04-27T03:35:50.476Z,22.03
2023-04-27T03:36:20.907Z,22.03
2023-04-27T03:36:51.324Z,22.03
2023-04-27T03:37:21.754Z,22.03
2023-04-27T03:37:52.202Z,22.02
2023-04-27T03:38:22.627Z,22.03
2023-04-27T03:38:53.041Z,22.05
2023-04-27T03:39:23.466Z,22.03
2023-04-27T03:39:53.887Z,22.03
2023-04-27T03:40:24.322Z,22.03
2023-04-27T03:40:54.732Z,22.05
2023-04-27T03:41:25.152Z,22.03
2023-04-27T03:41:55.586Z,22.03
2023-04-27T03:42:25.996Z,22.05
2023-04-27T03:42:59.046Z,22.05
2023-04-27T03:43:29.570Z,22.05
2023-04-27T03:43:59.979Z,22.05
2023-04-27T03:44:30.401Z,22.03
2023-04-27T03:45:00.826Z,22.03
2023-04-27T03:45:31.249Z,22.05
2023-04-27T03:46:01.699Z,22.05
2023-04-27T03:46:32.183Z,22.06
2023-04-27T03:47:02.632Z,22.05
2023-04-27T03:47:33.099Z,22.05
2023-04-27T03:48:03.544Z,22.07
2023-04-27T03:48:33.923Z,22.03
2023-04-27T03:49:04.348Z,22.05
2023-04-27T03:49:34.768Z,22.05
2023-04-27T03:50:05.197Z,22.03
2023-04-27T03:50:35.635Z,22.02
2023-04-27T03:51:06.034Z,22.03
2023-04-27T03:51:36.933Z,22.05
2023-04-27T03:52:07.368Z,22.03
2023-04-27T03:52:37.800Z,22.06
2023-04-27T03:53:08.209Z,22.05
2023-04-27T03:53:38.632Z,22.03
2023-04-27T03:54:09.077Z,22.05
2023-04-27T03:54:39.494Z,22.03
2023-04-27T03:55:09.905Z,22.03
2023-04-27T03:55:40.330Z,22.05
2023-04-27T03:56:10.755Z,22.05
2023-04-27T03:56:41.190Z,22.05
2023-04-27T03:57:11.627Z,22.05
2023-04-27T03:57:42.038Z,22.02
2023-04-27T03:58:12.509Z,22.03
2023-04-27T03:58:42.913Z,22.02
2023-04-27T03:59:13.526Z,22.02
2023-04-27T03:59:44.067Z,22.03
2023-04-27T04:00:14.490Z,22.05
2023-04-27T04:00:44.925Z,22.02
2023-04-27T04:01:15.329Z,22.03
2023-04-27T04:01:45.793Z,22.03
2023-04-27T04:02:16.369Z,22.03
2023-04-27T04:02:46.945Z,22.02
2023-04-27T04:03:17.747Z,22.00
2023-04-27T04:03:48.554Z,22.00
2023-04-27T04:04:19.199Z,22.02
2023-04-27T04:04:49.818Z,22.02
2023-04-27T04:05:20.428Z,22.03
2023-04-27T04:05:50.871Z,22.00
2023-04-27T04:06:21.285Z,22.02
2023-04-27T04:06:51.691Z,22.00
2023-04-27T04:07:22.111Z,22.03
2023-04-27T04:07:52.534Z,22.02
2023-04-27T04:08:22.971Z,22.02
2023-04-27T04:08:53.414Z,22.00
2023-04-27T04:09:24.180Z,22.00
2023-04-27T04:09:54.576Z,22.02
2023-04-27T04:10:24.997Z,22.00
2023-04-27T04:10:55.431Z,22.02
2023-04-27T04:11:25.839Z,22.00
2023-04-27T04:11:56.263Z,22.02
2023-04-27T04:12:26.692Z,22.02
2023-04-27T04:12:57.135Z,22.02
2023-04-27T04:13:27.549Z,22.03
2023-04-27T04:13:57.986Z,22.03
2023-04-27T04:14:28.403Z,22.03
2023-04-27T04:14:58.821Z,22.05
2023-04-27T04:15:29.245Z,22.02
2023-04-27T04:15:59.680Z,22.05
2023-04-27T04:16:30.187Z,22.03
2023-04-27T04:17:00.653Z,22.02
2023-04-27T04:17:31.095Z,22.03
2023-04-27T04:18:01.557Z,22.03
2023-04-27T04:18:31.960Z,22.02
2023-04-27T04:19:02.400Z,22.02
2023-04-27T04:19:32.798Z,22.02
2023-04-27T04:20:03.215Z,22.02
2023-04-27T04:20:33.635Z,22.03
2023-04-27T04:21:04.087Z,22.03
2023-04-27T04:21:34.484Z,22.05
2023-04-27T04:22:04.900Z,22.05
2023-04-27T04:22:35.333Z,22.05
2023-04-27T04:23:05.759Z,22.05
2023-04-27T04:23:36.183Z,22.06
2023-04-27T04:24:06.625Z,22.06
2023-04-27T04:24:37.042Z,22.06
2023-04-27T04:25:07.474Z,22.03
2023-04-27T04:25:37.897Z,22.05
2023-04-27T04:26:08.320Z,22.02
2023-04-27T04:26:38.785Z,22.02
2023-04-27T04:27:09.161Z,22.00
2023-04-27T04:27:39.589Z,22.00
2023-04-27T04:28:10.016Z,21.99
2023-04-27T04:28:40.473Z,22.00
2023-04-27T04:29:11.300Z,21.99
2023-04-27T04:29:41.890Z,21.99
2023-04-27T04:30:12.313Z,22.00
2023-04-27T04:30:42.721Z,22.02
2023-04-27T04:31:13.214Z,22.00
2023-04-27T04:31:43.738Z,22.00
2023-04-27T04:32:14.186Z,22.02
2023-04-27T04:32:44.642Z,21.99
2023-04-27T04:33:15.035Z,21.99
2023-04-27T04:33:45.468Z,21.98
2023-04-27T04:34:15.893Z,22.00
2023-04-27T04:34:46.325Z,22.00
2023-04-27T04:35:16.748Z,21.99
2023-04-27T04:35:47.191Z,21.98
2023-04-27T04:36:17.607Z,21.99
2023-04-27T04:36:48.007Z,21.99
2023-04-27T04:37:18.455Z,22.02
2023-04-27T04:37:48.932Z,22.00
2023-04-27T04:38:19.360Z,22.00
2023-04-27T04:38:49.788Z,22.00
2023-04-27T04:39:20.207Z,22.00
2023-04-27T04:39:50.650Z,22.00
2023-04-27T04:40:21.076Z,21.99
2023-04-27T04:40:51.515Z,21.99
2023-04-27T04:41:21.948Z,22.00
2023-04-27T04:41:52.346Z,21.99
2023-04-27T04:42:22.762Z,22.00
2023-04-27T04:42:53.188Z,21.99
2023-04-27T04:43:23.604Z,21.99
2023-04-27T04:43:54.034Z,22.00
2023-04-27T04:44:24.463Z,22.02
2023-04-27T04:44:54.884Z,22.00
2023-04-27T04:45:25.309Z,22.02
2023-04-27T04:45:55.725Z,22.00
2023-04-27T04:46:26.226Z,22.02
2023-04-27T04:46:56.645Z,22.02
2023-04-27T04:47:27.044Z,22.00
2023-04-27T04:47:57.465Z,22.00
2023-04-27T04:48:28.284Z,22.02
2023-04-27T04:48:58.737Z,22.03
2023-04-27T04:49:29.147Z,22.03
2023-04-27T04:49:59.567Z,22.03
2023-04-27T04:50:29.989Z,22.02
2023-04-27T04:51:00.407Z,22.03
2023-04-27T04:51:30.852Z,22.02
2023-04-27T04:52:01.471Z,22.00
2023-04-27T04:52:31.901Z,22.02
2023-04-27T04:53:02.320Z,22.00
2023-04-27T04:53:32.745Z,22.02
2023-04-27T04:54:03.193Z,22.02
2023-04-27T04:54:33.601Z,22.03
2023-04-27T04:55:04.024Z,22.02
2023-04-27T04:55:34.475Z,22.02
2023-04-27T04:56:04.900Z,22.03
2023-04-27T04:56:35.324Z,22.06
2023-04-27T04:57:05.748Z,22.05
2023-04-27T04:57:36.184Z,22.05
2023-04-27T04:58:06.585Z,22.06
2023-04-27T04:58:37.025Z,22.06
2023-04-27T04:59:07.441Z,22.06
2023-04-27T04:59:37.875Z,22.06
2023-04-27T05:00:08.299Z,22.05
2023-04-27T05:00:38.722Z,22.06
2023-04-27T05:01:09.171Z,22.05
2023-04-27T05:01:39.632Z,22.06
2023-04-27T05:02:10.048Z,22.07
2023-04-27T05:02:40.810Z,22.06
2023-04-27T05:03:11.465Z,22.05
2023-04-27T05:03:42.087Z,22.06
2023-04-27T05:04:12.723Z,22.06
2023-04-27T05:04:43.307Z,22.05
2023-04-27T05:05:13.821Z,22.06
2023-04-27T05:05:44.239Z,22.05
2023-04-27T05:06:14.656Z,22.06
2023-04-27T05:06:45.097Z,22.05
2023-04-27T05:07:17.044Z,22.06
2023-04-27T05:07:49.131Z,22.07
2023-04-27T05:08:19.525Z,22.06
2023-04-27T05:08:49.953Z,22.07
2023-04-27T05:09:20.379Z,22.06
2023-04-27T05:09:50.815Z,22.07
2023-04-27T05:10:21.222Z,22.07
2023-04-27T05:10:51.649Z,22.06
2023-04-27T05:11:22.068Z,22.07
2023-04-27T05:11:52.493Z,22.07
2023-04-27T05:12:22.917Z,22.07
2023-04-27T05:12:53.334Z,22.07
2023-04-27T05:13:23.768Z,22.06
2023-04-27T05:13:54.191Z,22.07
2023-04-27T05:14:24.626Z,22.09
2023-04-27T05:14:55.056Z,22.07
2023-04-27T05:15:25.482Z,22.09
2023-04-27T05:15:55.941Z,22.09
2023-04-27T05:16:26.384Z,22.07
2023-04-27T05:16:56.799Z,22.09
2023-04-27T05:17:27.264Z,22.09
2023-04-27T05:17:57.736Z,22.07
2023-04-27T05:18:28.116Z,22.07
2023-04-27T05:18:58.536Z,22.07
2023-04-27T05:19:28.970Z,22.09
2023-04-27T05:19:59.412Z,22.09
2023-04-27T05:20:29.832Z,22.07
2023-04-27T05:21:00.246Z,22.10
2023-04-27T05:21:30.690Z,22.09
2023-04-27T05:22:01.117Z,22.09
2023-04-27T05:22:31.522Z,22.07
2023-04-27T05:23:01.940Z,22.09
2023-04-27T05:23:32.368Z,22.09
2023-04-27T05:24:02.782Z,22.09
2023-04-27T05:24:33.233Z,22.07
2023-04-27T05:25:03.647Z,22.09
2023-04-27T05:25:34.068Z,22.09
2023-04-27T05:26:04.493Z,22.09
2023-04-27T05:26:34.917Z,22.09
2023-04-27T05:27:05.337Z,22.10
2023-04-27T05:27:35.756Z,22.10
2023-04-27T05:28:06.186Z,22.10
2023-04-27T05:28:36.600Z,22.10
2023-04-27T05:29:07.026Z,22.10
2023-04-27T05:29:37.490Z,22.12
2023-04-27T05:30:07.915Z,22.12
2023-04-27T05:30:38.338Z,22.12
2023-04-27T05:31:08.946Z,22.12
2023-04-27T05:31:39.418Z,22.12
2023-04-27T05:32:09.842Z,22.10
2023-04-27T05:32:40.297Z,22.12
2023-04-27T05:33:10.723Z,22.14
2023-04-27T05:33:41.122Z,22.14
2023-04-27T05:34:11.541Z,22.12
2023-04-27T05:34:41.978Z,22.12
2023-04-27T05:35:12.403Z,22.12
2023-04-27T05:35:42.830Z,22.12
2023-04-27T05:36:13.247Z,22.12
2023-04-27T05:36:43.690Z,22.14
2023-04-27T05:37:14.133Z,22.14
2023-04-27T05:37:44.541Z,22.14
2023-04-27T05:38:14.965Z,22.14
2023-04-27T05:38:45.384Z,22.14
2023-04-27T05:39:16.052Z,22.15
2023-04-27T05:39:46.656Z,22.15
2023-04-27T05:40:17.099Z,22.14
2023-04-27T05:40:47.520Z,22.15
2023-04-27T05:41:17.942Z,22.14
2023-04-27T05:41:48.584Z,22.12
2023-04-27T05:42:19.011Z,22.12
2023-04-27T05:42:49.434Z,22.12
2023-04-27T05:43:19.866Z,22.15
2023-04-27T05:43:50.301Z,22.12
2023-04-27T05:44:20.703Z,22.14
2023-04-27T05:44:51.135Z,22.14
2023-04-27T05:45:21.570Z,22.14
2023-04-27T05:45:52.008Z,22.12
2023-04-27T05:46:22.582Z,22.14
2023-04-27T05:46:52.979Z,22.14
2023-04-27T05:47:23.421Z,22.14
2023-04-27T05:47:53.833Z,22.14
2023-04-27T05:48:24.245Z,22.15
2023-04-27T05:48:54.665Z,22.15
2023-04-27T05:49:25.091Z,22.14
2023-04-27T05:49:55.530Z,22.17
2023-04-27T05:50:25.966Z,22.15
2023-04-27T05:50:56.379Z,22.15
2023-04-27T05:51:26.794Z,22.15
2023-04-27T05:51:57.220Z,22.17
2023-04-27T05:52:27.661Z,22.17
2023-04-27T05:52:58.071Z,22.14
2023-04-27T05:53:28.490Z,22.15
2023-04-27T05:53:58.918Z,22.15
2023-04-27T05:54:29.351Z,22.15
2023-04-27T05:54:59.798Z,22.15
2023-04-27T05:55:30.231Z,22.15
2023-04-27T05:56:00.655Z,22.14
2023-04-27T05:56:31.084Z,22.14
2023-04-27T05:57:01.500Z,22.15
2023-04-27T05:57:31.918Z,22.17
2023-04-27T05:58:08.576Z,22.14
2023-04-27T05:58:37.680Z,22.15
2023-04-27T05:59:08.102Z,22.17
2023-04-27T05:59:38.524Z,22.18
2023-04-27T06:00:08.968Z,22.20
2023-04-27T06:00:39.396Z,22.21
2023-04-27T06:01:09.821Z,22.21
2023-04-27T06:01:40.244Z,22.21
2023-04-27T06:02:10.696Z,22.21
2023-04-27T06:02:41.259Z,22.24
2023-04-27T06:03:11.941Z,22.24
2023-04-27T06:03:42.634Z,22.22
2023-04-27T06:04:13.257Z,22.25
2023-04-27T06:04:43.735Z,22.24
2023-04-27T06:05:14.220Z,22.22
2023-04-27T06:05:44.612Z,22.22
2023-04-27T06:06:15.055Z,22.22
2023-04-27T06:06:45.474Z,22.24
2023-04-27T06:07:16.470Z,22.22
2023-04-27T06:07:46.891Z,22.24
2023-04-27T06:08:17.298Z,22.25
2023-04-27T06:08:47.715Z,22.24
2023-04-27T06:09:18.136Z,22.25
2023-04-27T06:09:48.559Z,22.27
2023-04-27T06:10:19.009Z,22.25
2023-04-27T06:10:49.425Z,22.28
2023-04-27T06:11:19.859Z,22.28
2023-04-27T06:11:50.289Z,22.28
2023-04-27T06:12:20.708Z,22.31
2023-04-27T06:12:51.132Z,22.33
2023-04-27T06:13:21.553Z,22.31
2023-04-27T06:13:52.001Z,22.31
2023-04-27T06:14:22.408Z,22.35
2023-04-27T06:14:52.836Z,22.33
2023-04-27T06:15:23.307Z,22.35
2023-04-27T06:15:53.740Z,22.37
2023-04-27T06:16:24.204Z,22.35
2023-04-27T06:16:54.607Z,22.35
2023-04-27T06:17:25.031Z,22.35
2023-04-27T06:17:55.493Z,22.35
2023-04-27T06:18:25.878Z,22.35
2023-04-27T06:18:56.302Z,22.36
2023-04-27T06:19:26.727Z,22.35
2023-04-27T06:19:57.151Z,22.35
2023-04-27T06:20:27.584Z,22.36
2023-04-27T06:20:58.008Z,22.35
2023-04-27T06:21:28.433Z,22.35
2023-04-27T06:21:58.853Z,22.35
2023-04-27T06:22:29.283Z,22.33
2023-04-27T06:22:59.723Z,22.35
2023-04-27T06:23:30.116Z,22.36
2023-04-27T06:24:00.554Z,22.36
2023-04-27T06:24:30.982Z,22.39
2023-04-27T06:25:01.410Z,22.39
2023-04-27T06:25:31.842Z,22.40
2023-04-27T06:26:02.539Z,22.42
2023-04-27T06:26:32.914Z,22.43
2023-04-27T06:27:03.385Z,22.45
2023-04-27T06:27:33.806Z,22.46
2023-04-27T06:28:04.228Z,22.47
2023-04-27T06:28:34.653Z,22.46
2023-04-27T06:29:05.087Z,22.47
2023-04-27T06:29:35.526Z,22.49
2023-04-27T06:30:05.938Z,22.47
2023-04-27T06:30:37.649Z,22.51
2023-04-27T06:31:09.927Z,22.54
2023-04-27T06:31:40.367Z,22.55
2023-04-27T06:32:10.841Z,22.57